sensor_id;sensor_type;location;lat;lon;timestamp;temperature;humidity
62007;DHT22;47963;53.008;6.754;2022-08-19T00:01:28;17.50;99.90
62007;DHT22;47963;53.008;6.754;2022-08-19T00:04:03;17.50;99.90
62007;DHT22;47963;53.008;6.754;2022-08-19T00:06:30;17.50;99.90
62007;DHT22;47963;53.008;6.754;2022-08-19T00:08:57;17.40;99.90
62007;DHT22;47963;53.008;6.754;2022-08-19T00:11:23;17.40;99.90
62007;DHT22;47963;53.008;6.754;2022-08-19T00:13:49;17.40;99.90
62007;DHT22;47963;53.008;6.754;2022-08-19T00:16:18;17.40;99.90
62007;DHT22;47963;53.008;6.754;2022-08-19T00:18:47;17.40;99.90
62007;DHT22;47963;53.008;6.754;2022-08-19T00:21:13;17.40;99.90
62007;DHT22;47963;53.008;6.754;2022-08-19T00:23:39;17.40;99.90
62007;DHT22;47963;53.008;6.754;2022-08-19T00:26:06;17.30;99.90
62007;DHT22;47963;53.008;6.754;2022-08-19T00:28:32;17.30;99.90
62007;DHT22;47963;53.008;6.754;2022-08-19T00:30:59;17.20;99.90
62007;DHT22;47963;53.008;6.754;2022-08-19T00:33:25;17.30;99.90
62007;DHT22;47963;53.008;6.754;2022-08-19T00:35:51;17.20;99.90
62007;DHT22;47963;53.008;6.754;2022-08-19T00:38:17;17.20;99.90
62007;DHT22;47963;53.008;6.754;2022-08-19T00:40:43;17.20;99.90
62007;DHT22;47963;53.008;6.754;2022-08-19T00:43:12;17.20;99.90
62007;DHT22;47963;53.008;6.754;2022-08-19T00:45:39;17.20;99.90
62007;DHT22;47963;53.008;6.754;2022-08-19T00:48:08;17.10;99.90
62007;DHT22;47963;53.008;6.754;2022-08-19T00:50:34;17.20;99.90
62007;DHT22;47963;53.008;6.754;2022-08-19T00:53:03;17.10;99.90
62007;DHT22;47963;53.008;6.754;2022-08-19T00:55:30;17.10;99.90
62007;DHT22;47963;53.008;6.754;2022-08-19T00:58:08;17.10;99.90
62007;DHT22;47963;53.008;6.754;2022-08-19T01:00:35;17.10;99.90
62007;DHT22;47963;53.008;6.754;2022-08-19T01:03:06;17.10;99.90
62007;DHT22;47963;53.008;6.754;2022-08-19T01:05:32;17.10;99.90
62007;DHT22;47963;53.008;6.754;2022-08-19T01:08:00;17.10;99.90
62007;DHT22;47963;53.008;6.754;2022-08-19T01:10:31;17.00;99.90
62007;DHT22;47963;53.008;6.754;2022-08-19T01:12:59;17.00;99.90
62007;DHT22;47963;53.008;6.754;2022-08-19T01:15:32;16.90;99.90
62007;DHT22;47963;53.008;6.754;2022-08-19T01:18:04;16.90;99.90
62007;DHT22;47963;53.008;6.754;2022-08-19T01:20:31;16.80;99.90
62007;DHT22;47963;53.008;6.754;2022-08-19T01:22:58;16.90;99.90
62007;DHT22;47963;53.008;6.754;2022-08-19T01:25:46;16.90;99.90
62007;DHT22;47963;53.008;6.754;2022-08-19T01:30:43;16.80;99.90
62007;DHT22;47963;53.008;6.754;2022-08-19T01:33:09;16.70;99.90
62007;DHT22;47963;53.008;6.754;2022-08-19T01:35:36;16.70;99.90
62007;DHT22;47963;53.008;6.754;2022-08-19T01:38:07;16.70;99.90
62007;DHT22;47963;53.008;6.754;2022-08-19T01:40:38;16.60;99.90
62007;DHT22;47963;53.008;6.754;2022-08-19T01:43:05;16.70;99.90
62007;DHT22;47963;53.008;6.754;2022-08-19T01:45:32;16.70;99.90
62007;DHT22;47963;53.008;6.754;2022-08-19T01:47:59;16.60;99.90
62007;DHT22;47963;53.008;6.754;2022-08-19T01:50:25;16.70;99.90
62007;DHT22;47963;53.008;6.754;2022-08-19T01:52:51;16.60;99.90
62007;DHT22;47963;53.008;6.754;2022-08-19T01:55:20;16.50;99.90
62007;DHT22;47963;53.008;6.754;2022-08-19T01:57:50;16.50;99.90
62007;DHT22;47963;53.008;6.754;2022-08-19T02:00:19;16.50;99.90
62007;DHT22;47963;53.008;6.754;2022-08-19T02:02:45;16.50;99.90
62007;DHT22;47963;53.008;6.754;2022-08-19T02:05:12;16.40;99.90
62007;DHT22;47963;53.008;6.754;2022-08-19T02:07:39;16.50;99.90
62007;DHT22;47963;53.008;6.754;2022-08-19T02:10:10;16.50;99.90
62007;DHT22;47963;53.008;6.754;2022-08-19T02:12:37;16.40;99.90
62007;DHT22;47963;53.008;6.754;2022-08-19T02:15:03;16.40;99.90
62007;DHT22;47963;53.008;6.754;2022-08-19T02:17:29;16.40;99.90
62007;DHT22;47963;53.008;6.754;2022-08-19T02:19:55;16.40;99.90
62007;DHT22;47963;53.008;6.754;2022-08-19T02:22:22;16.40;99.90
62007;DHT22;47963;53.008;6.754;2022-08-19T02:24:48;16.40;99.90
62007;DHT22;47963;53.008;6.754;2022-08-19T02:27:14;16.40;99.90
62007;DHT22;47963;53.008;6.754;2022-08-19T02:29:40;16.40;99.90
62007;DHT22;47963;53.008;6.754;2022-08-19T02:32:06;16.30;99.90
62007;DHT22;47963;53.008;6.754;2022-08-19T02:34:32;16.30;99.90
62007;DHT22;47963;53.008;6.754;2022-08-19T02:36:58;16.30;99.90
62007;DHT22;47963;53.008;6.754;2022-08-19T02:39:24;16.30;99.90
62007;DHT22;47963;53.008;6.754;2022-08-19T02:41:49;16.20;99.90
62007;DHT22;47963;53.008;6.754;2022-08-19T02:44:16;16.10;99.90
62007;DHT22;47963;53.008;6.754;2022-08-19T02:46:42;16.20;99.90
62007;DHT22;47963;53.008;6.754;2022-08-19T02:49:10;16.20;99.90
62007;DHT22;47963;53.008;6.754;2022-08-19T02:51:39;16.20;99.90
62007;DHT22;47963;53.008;6.754;2022-08-19T02:54:08;16.20;99.90
62007;DHT22;47963;53.008;6.754;2022-08-19T02:56:38;16.20;99.90
62007;DHT22;47963;53.008;6.754;2022-08-19T02:59:05;16.20;99.90
62007;DHT22;47963;53.008;6.754;2022-08-19T03:01:33;16.20;99.90
62007;DHT22;47963;53.008;6.754;2022-08-19T03:04:03;16.10;99.90
62007;DHT22;47963;53.008;6.754;2022-08-19T03:06:30;16.00;99.90
62007;DHT22;47963;53.008;6.754;2022-08-19T03:08:56;16.00;99.90
62007;DHT22;47963;53.008;6.754;2022-08-19T03:11:33;16.00;99.90
62007;DHT22;47963;53.008;6.754;2022-08-19T03:14:00;16.00;99.90
62007;DHT22;47963;53.008;6.754;2022-08-19T03:16:28;16.00;99.90
62007;DHT22;47963;53.008;6.754;2022-08-19T03:18:56;16.00;99.90
62007;DHT22;47963;53.008;6.754;2022-08-19T03:21:24;16.00;99.90
62007;DHT22;47963;53.008;6.754;2022-08-19T03:23:53;16.00;99.90
62007;DHT22;47963;53.008;6.754;2022-08-19T03:26:19;16.10;99.90
62007;DHT22;47963;53.008;6.754;2022-08-19T03:28:45;16.00;99.90
62007;DHT22;47963;53.008;6.754;2022-08-19T03:31:17;16.10;99.90
62007;DHT22;47963;53.008;6.754;2022-08-19T03:33:43;16.00;99.90
62007;DHT22;47963;53.008;6.754;2022-08-19T03:36:13;15.90;99.90
62007;DHT22;47963;53.008;6.754;2022-08-19T03:38:46;15.80;99.90
62007;DHT22;47963;53.008;6.754;2022-08-19T03:41:19;15.80;99.90
62007;DHT22;47963;53.008;6.754;2022-08-19T03:43:46;15.70;99.90
62007;DHT22;47963;53.008;6.754;2022-08-19T03:46:17;15.70;99.90
62007;DHT22;47963;53.008;6.754;2022-08-19T03:48:44;15.80;99.90
62007;DHT22;47963;53.008;6.754;2022-08-19T03:51:39;15.80;99.90
62007;DHT22;47963;53.008;6.754;2022-08-19T03:54:07;15.70;99.90
62007;DHT22;47963;53.008;6.754;2022-08-19T03:56:34;15.60;99.90
62007;DHT22;47963;53.008;6.754;2022-08-19T03:59:01;15.40;99.90
62007;DHT22;47963;53.008;6.754;2022-08-19T04:01:28;15.40;99.90
62007;DHT22;47963;53.008;6.754;2022-08-19T04:03:55;15.20;99.90
62007;DHT22;47963;53.008;6.754;2022-08-19T04:06:27;15.30;99.90
62007;DHT22;47963;53.008;6.754;2022-08-19T04:08:55;15.30;99.90
62007;DHT22;47963;53.008;6.754;2022-08-19T04:11:24;15.40;99.90
62007;DHT22;47963;53.008;6.754;2022-08-19T04:13:51;15.50;99.90
62007;DHT22;47963;53.008;6.754;2022-08-19T04:16:22;15.50;99.90
62007;DHT22;47963;53.008;6.754;2022-08-19T04:18:48;15.50;99.90
62007;DHT22;47963;53.008;6.754;2022-08-19T04:21:20;15.50;99.90
62007;DHT22;47963;53.008;6.754;2022-08-19T04:23:46;15.60;99.90
62007;DHT22;47963;53.008;6.754;2022-08-19T04:26:35;15.60;99.90
62007;DHT22;47963;53.008;6.754;2022-08-19T04:29:01;15.50;99.90
62007;DHT22;47963;53.008;6.754;2022-08-19T04:31:29;15.50;99.90
62007;DHT22;47963;53.008;6.754;2022-08-19T04:33:57;15.50;99.90
62007;DHT22;47963;53.008;6.754;2022-08-19T04:36:29;15.50;99.90
62007;DHT22;47963;53.008;6.754;2022-08-19T04:38:58;15.50;99.90
62007;DHT22;47963;53.008;6.754;2022-08-19T04:41:24;15.40;99.90
62007;DHT22;47963;53.008;6.754;2022-08-19T04:44:09;15.30;99.90
62007;DHT22;47963;53.008;6.754;2022-08-19T04:46:35;15.20;99.90
62007;DHT22;47963;53.008;6.754;2022-08-19T04:49:03;15.30;99.90
62007;DHT22;47963;53.008;6.754;2022-08-19T04:51:30;15.20;99.90
62007;DHT22;47963;53.008;6.754;2022-08-19T04:53:57;15.20;99.90
62007;DHT22;47963;53.008;6.754;2022-08-19T04:56:23;15.10;99.90
62007;DHT22;47963;53.008;6.754;2022-08-19T04:58:51;15.10;99.90
62007;DHT22;47963;53.008;6.754;2022-08-19T05:01:20;15.00;99.90
62007;DHT22;47963;53.008;6.754;2022-08-19T05:03:46;15.10;99.90
62007;DHT22;47963;53.008;6.754;2022-08-19T05:06:14;15.10;99.90
62007;DHT22;47963;53.008;6.754;2022-08-19T05:08:41;15.20;99.90
62007;DHT22;47963;53.008;6.754;2022-08-19T05:11:24;15.20;99.90
62007;DHT22;47963;53.008;6.754;2022-08-19T05:13:51;15.20;99.90
62007;DHT22;47963;53.008;6.754;2022-08-19T05:16:19;15.20;99.90
62007;DHT22;47963;53.008;6.754;2022-08-19T05:18:46;15.30;99.90
62007;DHT22;47963;53.008;6.754;2022-08-19T05:21:31;15.30;99.90
62007;DHT22;47963;53.008;6.754;2022-08-19T05:24:16;15.30;99.90
62007;DHT22;47963;53.008;6.754;2022-08-19T05:26:46;15.30;99.90
62007;DHT22;47963;53.008;6.754;2022-08-19T05:29:14;15.30;99.90
62007;DHT22;47963;53.008;6.754;2022-08-19T05:31:40;15.20;99.90
62007;DHT22;47963;53.008;6.754;2022-08-19T05:34:07;15.30;99.90
62007;DHT22;47963;53.008;6.754;2022-08-19T05:36:39;15.40;99.90
62007;DHT22;47963;53.008;6.754;2022-08-19T05:39:12;15.50;99.90
62007;DHT22;47963;53.008;6.754;2022-08-19T05:41:42;15.50;99.90
62007;DHT22;47963;53.008;6.754;2022-08-19T05:44:08;15.50;99.90
62007;DHT22;47963;53.008;6.754;2022-08-19T05:46:36;15.70;99.90
62007;DHT22;47963;53.008;6.754;2022-08-19T05:49:03;15.80;99.90
62007;DHT22;47963;53.008;6.754;2022-08-19T05:51:30;15.80;99.90
62007;DHT22;47963;53.008;6.754;2022-08-19T05:53:57;15.90;99.90
62007;DHT22;47963;53.008;6.754;2022-08-19T05:56:23;15.90;99.90
62007;DHT22;47963;53.008;6.754;2022-08-19T05:58:49;16.10;99.90
62007;DHT22;47963;53.008;6.754;2022-08-19T06:01:17;16.20;99.90
62007;DHT22;47963;53.008;6.754;2022-08-19T06:03:44;16.20;99.90
62007;DHT22;47963;53.008;6.754;2022-08-19T06:06:11;16.20;99.90
62007;DHT22;47963;53.008;6.754;2022-08-19T06:08:37;16.30;99.90
62007;DHT22;47963;53.008;6.754;2022-08-19T06:11:19;16.40;99.90
62007;DHT22;47963;53.008;6.754;2022-08-19T06:13:46;16.50;99.90
62007;DHT22;47963;53.008;6.754;2022-08-19T06:16:14;16.50;99.90
62007;DHT22;47963;53.008;6.754;2022-08-19T06:18:48;16.60;99.90
62007;DHT22;47963;53.008;6.754;2022-08-19T06:21:15;16.70;99.90
62007;DHT22;47963;53.008;6.754;2022-08-19T06:23:41;16.80;99.90
62007;DHT22;47963;53.008;6.754;2022-08-19T06:26:11;16.80;99.90
62007;DHT22;47963;53.008;6.754;2022-08-19T06:28:37;16.90;99.90
62007;DHT22;47963;53.008;6.754;2022-08-19T06:31:09;17.00;99.90
62007;DHT22;47963;53.008;6.754;2022-08-19T06:33:35;17.10;99.90
62007;DHT22;47963;53.008;6.754;2022-08-19T06:36:01;17.10;99.90
62007;DHT22;47963;53.008;6.754;2022-08-19T06:38:26;17.20;99.90
62007;DHT22;47963;53.008;6.754;2022-08-19T06:41:01;17.30;99.90
62007;DHT22;47963;53.008;6.754;2022-08-19T06:43:26;17.50;99.90
62007;DHT22;47963;53.008;6.754;2022-08-19T06:45:52;17.50;99.90
62007;DHT22;47963;53.008;6.754;2022-08-19T06:48:18;17.60;99.90
62007;DHT22;47963;53.008;6.754;2022-08-19T06:50:43;17.70;99.90
62007;DHT22;47963;53.008;6.754;2022-08-19T06:53:09;17.70;99.90
62007;DHT22;47963;53.008;6.754;2022-08-19T06:55:34;17.80;99.90
62007;DHT22;47963;53.008;6.754;2022-08-19T06:58:04;17.90;99.90
62007;DHT22;47963;53.008;6.754;2022-08-19T07:00:30;18.00;99.90
62007;DHT22;47963;53.008;6.754;2022-08-19T07:02:55;18.00;99.90
62007;DHT22;47963;53.008;6.754;2022-08-19T07:05:21;18.10;99.90
62007;DHT22;47963;53.008;6.754;2022-08-19T07:07:47;18.20;99.90
62007;DHT22;47963;53.008;6.754;2022-08-19T07:10:13;18.30;99.90
62007;DHT22;47963;53.008;6.754;2022-08-19T07:12:39;18.40;99.90
62007;DHT22;47963;53.008;6.754;2022-08-19T07:15:06;18.50;99.90
62007;DHT22;47963;53.008;6.754;2022-08-19T07:17:33;18.50;99.90
62007;DHT22;47963;53.008;6.754;2022-08-19T07:20:03;18.70;99.90
62007;DHT22;47963;53.008;6.754;2022-08-19T07:22:29;18.70;99.90
62007;DHT22;47963;53.008;6.754;2022-08-19T07:24:54;18.80;99.90
62007;DHT22;47963;53.008;6.754;2022-08-19T07:27:21;18.90;99.90
62007;DHT22;47963;53.008;6.754;2022-08-19T07:29:47;19.10;99.90
62007;DHT22;47963;53.008;6.754;2022-08-19T07:32:12;19.10;99.90
62007;DHT22;47963;53.008;6.754;2022-08-19T07:34:38;19.20;99.90
62007;DHT22;47963;53.008;6.754;2022-08-19T07:37:05;19.30;99.90
62007;DHT22;47963;53.008;6.754;2022-08-19T07:39:34;19.30;99.90
62007;DHT22;47963;53.008;6.754;2022-08-19T07:42:02;19.50;99.90
62007;DHT22;47963;53.008;6.754;2022-08-19T07:44:29;19.50;99.90
62007;DHT22;47963;53.008;6.754;2022-08-19T07:46:56;19.60;99.90
62007;DHT22;47963;53.008;6.754;2022-08-19T07:49:23;19.60;99.90
62007;DHT22;47963;53.008;6.754;2022-08-19T07:51:53;19.70;99.90
62007;DHT22;47963;53.008;6.754;2022-08-19T07:54:20;19.80;99.90
62007;DHT22;47963;53.008;6.754;2022-08-19T07:56:46;19.90;99.90
62007;DHT22;47963;53.008;6.754;2022-08-19T07:59:12;20.00;99.90
62007;DHT22;47963;53.008;6.754;2022-08-19T08:01:39;20.10;99.90
62007;DHT22;47963;53.008;6.754;2022-08-19T08:04:06;20.20;99.90
62007;DHT22;47963;53.008;6.754;2022-08-19T08:06:51;20.30;99.90
62007;DHT22;47963;53.008;6.754;2022-08-19T08:09:39;20.30;99.90
62007;DHT22;47963;53.008;6.754;2022-08-19T08:12:07;20.40;99.90
62007;DHT22;47963;53.008;6.754;2022-08-19T08:14:43;20.50;99.90
62007;DHT22;47963;53.008;6.754;2022-08-19T08:17:10;20.60;99.90
62007;DHT22;47963;53.008;6.754;2022-08-19T08:19:36;20.60;99.90
62007;DHT22;47963;53.008;6.754;2022-08-19T08:22:03;20.60;99.90
62007;DHT22;47963;53.008;6.754;2022-08-19T08:24:31;20.80;99.90
62007;DHT22;47963;53.008;6.754;2022-08-19T08:26:58;20.90;99.90
62007;DHT22;47963;53.008;6.754;2022-08-19T08:29:28;21.00;99.90
62007;DHT22;47963;53.008;6.754;2022-08-19T08:31:55;21.00;99.90
62007;DHT22;47963;53.008;6.754;2022-08-19T08:34:21;21.20;99.90
62007;DHT22;47963;53.008;6.754;2022-08-19T08:36:47;21.20;99.90
62007;DHT22;47963;53.008;6.754;2022-08-19T08:39:15;21.30;99.90
62007;DHT22;47963;53.008;6.754;2022-08-19T08:42:21;21.30;99.90
62007;DHT22;47963;53.008;6.754;2022-08-19T08:47:20;21.60;99.90
62007;DHT22;47963;53.008;6.754;2022-08-19T08:52:31;21.70;99.90
62007;DHT22;47963;53.008;6.754;2022-08-19T08:55:05;21.90;99.90
62007;DHT22;47963;53.008;6.754;2022-08-19T08:57:49;21.90;99.90
62007;DHT22;47963;53.008;6.754;2022-08-19T09:00:30;22.00;99.90
62007;DHT22;47963;53.008;6.754;2022-08-19T09:02:57;22.10;99.90
62007;DHT22;47963;53.008;6.754;2022-08-19T09:05:26;22.20;99.90
62007;DHT22;47963;53.008;6.754;2022-08-19T09:08:08;22.10;99.90
62007;DHT22;47963;53.008;6.754;2022-08-19T09:10:39;22.20;99.90
62007;DHT22;47963;53.008;6.754;2022-08-19T09:15:45;22.30;99.90
62007;DHT22;47963;53.008;6.754;2022-08-19T09:18:14;22.40;99.90
62007;DHT22;47963;53.008;6.754;2022-08-19T09:20:41;22.40;99.90
62007;DHT22;47963;53.008;6.754;2022-08-19T09:23:07;22.60;99.90
62007;DHT22;47963;53.008;6.754;2022-08-19T09:25:33;22.50;99.90
62007;DHT22;47963;53.008;6.754;2022-08-19T09:28:00;22.70;99.90
62007;DHT22;47963;53.008;6.754;2022-08-19T09:30:31;22.70;99.90
62007;DHT22;47963;53.008;6.754;2022-08-19T09:32:57;22.80;99.90
62007;DHT22;47963;53.008;6.754;2022-08-19T09:35:25;22.90;99.90
62007;DHT22;47963;53.008;6.754;2022-08-19T09:37:52;22.90;99.90
62007;DHT22;47963;53.008;6.754;2022-08-19T09:40:18;22.90;99.90
62007;DHT22;47963;53.008;6.754;2022-08-19T09:42:45;23.00;99.90
62007;DHT22;47963;53.008;6.754;2022-08-19T09:45:14;23.10;99.90
62007;DHT22;47963;53.008;6.754;2022-08-19T09:47:40;23.20;99.90
62007;DHT22;47963;53.008;6.754;2022-08-19T09:50:08;23.30;99.90
62007;DHT22;47963;53.008;6.754;2022-08-19T09:52:34;23.20;99.90
62007;DHT22;47963;53.008;6.754;2022-08-19T09:55:05;23.30;99.90
62007;DHT22;47963;53.008;6.754;2022-08-19T09:57:31;23.50;99.90
62007;DHT22;47963;53.008;6.754;2022-08-19T09:59:57;23.50;99.90
62007;DHT22;47963;53.008;6.754;2022-08-19T10:02:22;23.60;99.90
62007;DHT22;47963;53.008;6.754;2022-08-19T10:04:48;23.70;99.90
62007;DHT22;47963;53.008;6.754;2022-08-19T10:07:32;23.80;99.90
62007;DHT22;47963;53.008;6.754;2022-08-19T10:09:58;23.80;99.90
62007;DHT22;47963;53.008;6.754;2022-08-19T10:12:24;23.80;99.90
62007;DHT22;47963;53.008;6.754;2022-08-19T10:14:50;24.00;99.90
62007;DHT22;47963;53.008;6.754;2022-08-19T10:17:17;24.00;99.90
62007;DHT22;47963;53.008;6.754;2022-08-19T10:19:43;24.00;99.90
62007;DHT22;47963;53.008;6.754;2022-08-19T10:22:08;24.10;99.90
62007;DHT22;47963;53.008;6.754;2022-08-19T10:24:39;24.20;99.90
62007;DHT22;47963;53.008;6.754;2022-08-19T10:27:05;24.20;99.90
62007;DHT22;47963;53.008;6.754;2022-08-19T10:29:32;24.30;99.90
62007;DHT22;47963;53.008;6.754;2022-08-19T10:32:00;24.40;99.90
62007;DHT22;47963;53.008;6.754;2022-08-19T10:34:27;24.60;99.90
62007;DHT22;47963;53.008;6.754;2022-08-19T10:36:54;24.70;99.90
62007;DHT22;47963;53.008;6.754;2022-08-19T10:39:20;24.70;99.90
62007;DHT22;47963;53.008;6.754;2022-08-19T10:41:46;24.80;99.90
62007;DHT22;47963;53.008;6.754;2022-08-19T10:44:13;24.90;99.90
62007;DHT22;47963;53.008;6.754;2022-08-19T10:46:41;24.80;99.90
62007;DHT22;47963;53.008;6.754;2022-08-19T10:49:09;24.70;99.90
62007;DHT22;47963;53.008;6.754;2022-08-19T10:51:35;24.60;99.90
62007;DHT22;47963;53.008;6.754;2022-08-19T10:54:19;24.80;99.90
62007;DHT22;47963;53.008;6.754;2022-08-19T10:56:45;25.00;99.90
62007;DHT22;47963;53.008;6.754;2022-08-19T10:59:22;25.10;99.90
62007;DHT22;47963;53.008;6.754;2022-08-19T11:01:49;24.90;99.90
62007;DHT22;47963;53.008;6.754;2022-08-19T11:04:15;24.80;99.90
62007;DHT22;47963;53.008;6.754;2022-08-19T11:06:46;24.80;99.90
62007;DHT22;47963;53.008;6.754;2022-08-19T11:09:24;24.90;99.90
62007;DHT22;47963;53.008;6.754;2022-08-19T11:11:50;24.80;99.90
62007;DHT22;47963;53.008;6.754;2022-08-19T11:14:18;24.80;99.90
62007;DHT22;47963;53.008;6.754;2022-08-19T11:16:49;24.60;99.90
62007;DHT22;47963;53.008;6.754;2022-08-19T11:19:16;24.50;99.90
62007;DHT22;47963;53.008;6.754;2022-08-19T11:21:46;24.40;99.90
62007;DHT22;47963;53.008;6.754;2022-08-19T11:24:24;24.20;99.90
62007;DHT22;47963;53.008;6.754;2022-08-19T11:26:52;24.00;99.90
62007;DHT22;47963;53.008;6.754;2022-08-19T11:29:21;24.00;99.90
62007;DHT22;47963;53.008;6.754;2022-08-19T11:31:49;24.00;99.90
62007;DHT22;47963;53.008;6.754;2022-08-19T11:34:19;24.40;99.90
62007;DHT22;47963;53.008;6.754;2022-08-19T11:36:46;24.70;99.90
62007;DHT22;47963;53.008;6.754;2022-08-19T11:39:16;24.60;99.90
62007;DHT22;47963;53.008;6.754;2022-08-19T11:41:42;24.50;99.90
62007;DHT22;47963;53.008;6.754;2022-08-19T11:44:07;24.80;99.90
62007;DHT22;47963;53.008;6.754;2022-08-19T11:46:35;25.00;99.90
62007;DHT22;47963;53.008;6.754;2022-08-19T11:49:02;25.40;99.90
62007;DHT22;47963;53.008;6.754;2022-08-19T11:51:29;25.20;99.90
62007;DHT22;47963;53.008;6.754;2022-08-19T11:53:57;25.00;99.90
62007;DHT22;47963;53.008;6.754;2022-08-19T11:56:24;25.20;99.90
62007;DHT22;47963;53.008;6.754;2022-08-19T11:58:51;25.50;99.90
62007;DHT22;47963;53.008;6.754;2022-08-19T12:01:19;25.70;99.90
62007;DHT22;47963;53.008;6.754;2022-08-19T12:03:47;25.90;99.90
62007;DHT22;47963;53.008;6.754;2022-08-19T12:06:16;26.20;99.90
62007;DHT22;47963;53.008;6.754;2022-08-19T12:08:43;26.10;99.90
62007;DHT22;47963;53.008;6.754;2022-08-19T12:11:11;26.20;99.90
62007;DHT22;47963;53.008;6.754;2022-08-19T12:13:38;26.30;99.90
62007;DHT22;47963;53.008;6.754;2022-08-19T12:16:12;26.40;99.90
62007;DHT22;47963;53.008;6.754;2022-08-19T12:18:42;26.30;99.90
62007;DHT22;47963;53.008;6.754;2022-08-19T12:21:12;26.30;99.90
62007;DHT22;47963;53.008;6.754;2022-08-19T12:23:40;26.10;99.90
62007;DHT22;47963;53.008;6.754;2022-08-19T12:26:06;26.00;99.90
62007;DHT22;47963;53.008;6.754;2022-08-19T12:28:32;26.40;99.90
62007;DHT22;47963;53.008;6.754;2022-08-19T12:30:58;26.60;99.90
62007;DHT22;47963;53.008;6.754;2022-08-19T12:33:23;26.40;99.90
62007;DHT22;47963;53.008;6.754;2022-08-19T12:35:52;26.40;99.90
62007;DHT22;47963;53.008;6.754;2022-08-19T12:38:21;25.80;99.90
62007;DHT22;47963;53.008;6.754;2022-08-19T12:40:50;25.60;99.90
62007;DHT22;47963;53.008;6.754;2022-08-19T12:43:17;25.30;99.90
62007;DHT22;47963;53.008;6.754;2022-08-19T12:45:45;25.30;99.90
62007;DHT22;47963;53.008;6.754;2022-08-19T12:48:10;25.20;99.90
62007;DHT22;47963;53.008;6.754;2022-08-19T12:50:39;25.10;99.90
62007;DHT22;47963;53.008;6.754;2022-08-19T12:53:05;25.10;99.90
62007;DHT22;47963;53.008;6.754;2022-08-19T12:55:30;25.20;99.90
62007;DHT22;47963;53.008;6.754;2022-08-19T12:57:57;25.20;99.90
62007;DHT22;47963;53.008;6.754;2022-08-19T13:00:23;25.20;99.90
62007;DHT22;47963;53.008;6.754;2022-08-19T13:02:50;25.30;99.90
62007;DHT22;47963;53.008;6.754;2022-08-19T13:05:22;25.20;99.90
62007;DHT22;47963;53.008;6.754;2022-08-19T13:07:50;25.20;99.90
62007;DHT22;47963;53.008;6.754;2022-08-19T13:10:18;25.20;99.90
62007;DHT22;47963;53.008;6.754;2022-08-19T13:12:46;25.50;99.90
62007;DHT22;47963;53.008;6.754;2022-08-19T13:15:14;25.50;99.90
62007;DHT22;47963;53.008;6.754;2022-08-19T13:17:41;25.60;99.90
62007;DHT22;47963;53.008;6.754;2022-08-19T13:20:08;25.70;99.90
62007;DHT22;47963;53.008;6.754;2022-08-19T13:22:35;25.70;99.90
62007;DHT22;47963;53.008;6.754;2022-08-19T13:25:02;25.80;99.90
62007;DHT22;47963;53.008;6.754;2022-08-19T13:27:28;25.70;99.90
62007;DHT22;47963;53.008;6.754;2022-08-19T13:29:54;25.60;99.90
62007;DHT22;47963;53.008;6.754;2022-08-19T13:32:38;25.60;99.90
62007;DHT22;47963;53.008;6.754;2022-08-19T13:35:22;25.60;99.90
62007;DHT22;47963;53.008;6.754;2022-08-19T13:37:48;25.60;99.90
62007;DHT22;47963;53.008;6.754;2022-08-19T13:40:17;25.50;99.90
62007;DHT22;47963;53.008;6.754;2022-08-19T13:42:49;25.70;99.90
62007;DHT22;47963;53.008;6.754;2022-08-19T13:45:17;25.70;99.90
62007;DHT22;47963;53.008;6.754;2022-08-19T13:47:46;25.70;99.90
62007;DHT22;47963;53.008;6.754;2022-08-19T13:50:14;25.70;99.90
62007;DHT22;47963;53.008;6.754;2022-08-19T13:52:42;25.70;99.90
62007;DHT22;47963;53.008;6.754;2022-08-19T13:55:09;25.70;99.90
62007;DHT22;47963;53.008;6.754;2022-08-19T13:57:36;25.70;99.90
62007;DHT22;47963;53.008;6.754;2022-08-19T14:00:08;25.60;99.90
62007;DHT22;47963;53.008;6.754;2022-08-19T14:02:38;25.50;99.90
62007;DHT22;47963;53.008;6.754;2022-08-19T14:05:07;25.40;99.90
62007;DHT22;47963;53.008;6.754;2022-08-19T14:07:33;25.40;99.90
62007;DHT22;47963;53.008;6.754;2022-08-19T14:09:58;25.30;99.90
62007;DHT22;47963;53.008;6.754;2022-08-19T14:12:24;25.10;99.90
62007;DHT22;47963;53.008;6.754;2022-08-19T14:14:50;24.80;99.90
62007;DHT22;47963;53.008;6.754;2022-08-19T14:17:15;24.60;99.90
62007;DHT22;47963;53.008;6.754;2022-08-19T14:19:42;24.40;99.90
62007;DHT22;47963;53.008;6.754;2022-08-19T14:22:08;24.20;99.90
62007;DHT22;47963;53.008;6.754;2022-08-19T14:24:36;24.00;99.90
62007;DHT22;47963;53.008;6.754;2022-08-19T14:27:02;24.00;99.90
62007;DHT22;47963;53.008;6.754;2022-08-19T14:29:28;23.90;99.90
62007;DHT22;47963;53.008;6.754;2022-08-19T14:31:54;23.80;99.90
62007;DHT22;47963;53.008;6.754;2022-08-19T14:34:21;23.80;99.90
62007;DHT22;47963;53.008;6.754;2022-08-19T14:36:47;23.70;99.90
62007;DHT22;47963;53.008;6.754;2022-08-19T14:39:13;23.80;99.90
62007;DHT22;47963;53.008;6.754;2022-08-19T14:41:40;23.70;99.90
62007;DHT22;47963;53.008;6.754;2022-08-19T14:44:07;23.60;99.90
62007;DHT22;47963;53.008;6.754;2022-08-19T14:46:35;23.60;99.90
62007;DHT22;47963;53.008;6.754;2022-08-19T14:49:01;23.60;99.90
62007;DHT22;47963;53.008;6.754;2022-08-19T14:51:27;23.70;99.90
62007;DHT22;47963;53.008;6.754;2022-08-19T14:53:53;23.70;99.90
62007;DHT22;47963;53.008;6.754;2022-08-19T14:56:22;23.70;99.90
62007;DHT22;47963;53.008;6.754;2022-08-19T14:58:48;23.90;99.90
62007;DHT22;47963;53.008;6.754;2022-08-19T15:01:18;24.10;99.90
62007;DHT22;47963;53.008;6.754;2022-08-19T15:03:46;24.40;99.90
62007;DHT22;47963;53.008;6.754;2022-08-19T15:06:12;24.60;99.90
62007;DHT22;47963;53.008;6.754;2022-08-19T15:08:39;24.40;99.90
62007;DHT22;47963;53.008;6.754;2022-08-19T15:11:16;24.20;99.90
62007;DHT22;47963;53.008;6.754;2022-08-19T15:13:43;24.00;99.90
62007;DHT22;47963;53.008;6.754;2022-08-19T15:16:10;24.10;99.90
62007;DHT22;47963;53.008;6.754;2022-08-19T15:18:36;24.00;99.90
62007;DHT22;47963;53.008;6.754;2022-08-19T15:21:03;24.00;99.90
62007;DHT22;47963;53.008;6.754;2022-08-19T15:23:29;24.00;99.90
62007;DHT22;47963;53.008;6.754;2022-08-19T15:25:55;24.00;99.90
62007;DHT22;47963;53.008;6.754;2022-08-19T15:28:25;24.00;99.90
62007;DHT22;47963;53.008;6.754;2022-08-19T15:30:52;24.00;99.90
62007;DHT22;47963;53.008;6.754;2022-08-19T15:33:18;24.00;99.90
62007;DHT22;47963;53.008;6.754;2022-08-19T15:35:46;24.00;99.90
62007;DHT22;47963;53.008;6.754;2022-08-19T15:38:13;23.90;99.90
62007;DHT22;47963;53.008;6.754;2022-08-19T15:40:40;24.10;99.90
62007;DHT22;47963;53.008;6.754;2022-08-19T15:43:07;24.10;99.90
62007;DHT22;47963;53.008;6.754;2022-08-19T15:45:32;24.10;99.90
62007;DHT22;47963;53.008;6.754;2022-08-19T15:48:00;24.30;99.90